createdAt,value
2022-11-12T00:00:56.764Z,22.30
2022-11-12T00:03:23.562Z,21.80
2022-11-12T00:05:51.323Z,22.10
2022-11-12T00:08:18.421Z,21.45
2022-11-12T00:10:45.802Z,21.77
2022-11-12T00:13:12.764Z,20.33
2022-11-12T00:15:39.472Z,21.23
2022-11-12T00:18:07.551Z,20.38
2022-11-12T00:20:34.445Z,19.37
2022-11-12T00:23:01.040Z,19.25
2022-11-12T00:25:28.286Z,20.57
2022-11-12T00:28:00.281Z,20.35
2022-11-12T00:30:26.847Z,19.83
2022-11-12T00:32:53.395Z,20.07
2022-11-12T00:35:19.991Z,19.63
2022-11-12T00:37:46.673Z,20.00
2022-11-12T00:40:13.298Z,21.90
2022-11-12T00:42:39.859Z,21.33
2022-11-12T00:45:06.897Z,21.40
2022-11-12T00:47:33.484Z,21.60
2022-11-12T00:50:00.049Z,23.35
2022-11-12T00:52:26.981Z,23.70
2022-11-12T00:54:53.688Z,22.20
2022-11-12T00:57:20.318Z,23.50
2022-11-12T00:59:46.940Z,24.35
2022-11-12T01:02:13.544Z,24.47
2022-11-12T01:04:40.137Z,25.08
2022-11-12T01:07:06.766Z,26.03
2022-11-12T01:09:33.475Z,26.10
2022-11-12T01:12:00.049Z,26.63
2022-11-12T01:14:26.595Z,26.53
2022-11-12T01:16:53.329Z,25.70
2022-11-12T01:19:19.957Z,25.58
2022-11-12T01:21:46.686Z,26.33
2022-11-12T01:24:13.354Z,25.37
2022-11-12T01:26:40.404Z,24.93
2022-11-12T01:29:07.421Z,25.40
2022-11-12T01:31:38.506Z,26.27
2022-11-12T01:34:08.369Z,27.60
2022-11-12T01:36:37.632Z,26.47
2022-11-12T01:39:06.799Z,26.07
2022-11-12T01:41:36.742Z,27.63
2022-11-12T01:44:20.075Z,25.00
2022-11-12T01:47:12.172Z,25.10
2022-11-12T01:49:57.310Z,25.30
2022-11-12T01:52:31.906Z,25.50
2022-11-12T01:55:03.334Z,26.23
2022-11-12T01:57:35.456Z,26.03
2022-11-12T02:00:07.875Z,26.13
2022-11-12T02:02:36.237Z,26.50
2022-11-12T02:05:05.899Z,26.53
2022-11-12T02:07:33.077Z,25.77
2022-11-12T02:10:02.386Z,26.87
2022-11-12T02:12:47.978Z,25.37
2022-11-12T02:15:14.700Z,25.70
2022-11-12T02:17:41.368Z,25.30
2022-11-12T02:20:12.426Z,26.73
2022-11-12T02:22:39.028Z,26.03
2022-11-12T02:25:06.365Z,26.47
2022-11-12T02:27:33.766Z,24.90
2022-11-12T02:30:00.324Z,24.90
2022-11-12T02:32:27.130Z,23.30
2022-11-12T02:34:53.750Z,22.37
2022-11-12T02:37:20.311Z,21.13
2022-11-12T02:39:46.988Z,21.17
2022-11-12T02:42:13.577Z,21.23
2022-11-12T02:44:40.339Z,21.33
2022-11-12T02:47:06.907Z,20.53
2022-11-12T02:49:33.537Z,19.97
2022-11-12T02:52:00.104Z,20.30
2022-11-12T02:54:26.729Z,19.97
2022-11-12T02:56:53.324Z,19.57
2022-11-12T02:59:19.899Z,21.73
2022-11-12T03:01:46.448Z,21.20
2022-11-12T03:04:13.013Z,19.80
2022-11-12T03:06:39.942Z,20.43
2022-11-12T03:09:06.604Z,19.63
2022-11-12T03:11:33.178Z,18.83
2022-11-12T03:14:01.383Z,20.60
2022-11-12T03:16:27.944Z,20.10
2022-11-12T03:18:54.527Z,19.90
2022-11-12T03:21:21.093Z,19.93
2022-11-12T03:23:47.650Z,19.93
2022-11-12T03:26:14.243Z,20.97
2022-11-12T03:28:40.833Z,22.13
2022-11-12T03:31:07.423Z,21.17
2022-11-12T03:33:34.062Z,21.00
2022-11-12T03:36:00.673Z,19.97
2022-11-12T03:38:27.615Z,20.20
2022-11-12T03:40:54.507Z,21.50
2022-11-12T03:43:21.084Z,21.60
2022-11-12T03:45:47.817Z,20.67
2022-11-12T03:48:25.682Z,20.70
2022-11-12T03:50:52.554Z,20.97
2022-11-12T03:53:19.182Z,23.17
2022-11-12T03:55:45.782Z,24.17
2022-11-12T03:58:12.336Z,23.73
2022-11-12T04:00:38.951Z,22.80
2022-11-12T04:03:05.562Z,22.37
2022-11-12T04:05:50.731Z,24.23
2022-11-12T04:08:37.746Z,23.57
2022-11-12T04:11:08.794Z,23.77
2022-11-12T04:13:38.285Z,22.27
2022-11-12T04:16:36.795Z,21.87
2022-11-12T04:19:24.333Z,21.13
2022-11-12T04:22:03.134Z,21.43
2022-11-12T04:24:59.634Z,21.67
2022-11-12T04:27:33.957Z,20.47
2022-11-12T04:30:16.227Z,21.27
2022-11-12T04:32:50.623Z,20.57
2022-11-12T04:35:18.848Z,20.37
2022-11-12T04:37:45.738Z,19.00
2022-11-12T04:40:36.768Z,20.10
2022-11-12T04:43:23.802Z,20.27
2022-11-12T04:45:52.537Z,20.93
2022-11-12T04:48:20.130Z,21.47
2022-11-12T04:50:49.965Z,21.43
2022-11-12T04:53:17.091Z,20.67
2022-11-12T04:55:43.718Z,21.40
2022-11-12T04:58:10.482Z,20.90
2022-11-12T05:00:37.064Z,21.40
2022-11-12T05:03:03.639Z,21.83
2022-11-12T05:05:33.855Z,21.57
2022-11-12T05:08:02.135Z,21.83
2022-11-12T05:10:29.389Z,21.80
2022-11-12T05:12:56.002Z,21.87
2022-11-12T05:15:22.916Z,22.13
2022-11-12T05:17:49.696Z,22.40
2022-11-12T05:20:17.757Z,21.27
2022-11-12T05:22:59.023Z,21.17
2022-11-12T05:25:31.060Z,19.83
2022-11-12T05:27:57.672Z,19.73
2022-11-12T05:30:24.437Z,19.47
2022-11-12T05:32:51.000Z,19.50
2022-11-12T05:35:17.594Z,21.03
2022-11-12T05:37:44.293Z,21.23
2022-11-12T05:40:11.342Z,21.20
2022-11-12T05:42:38.018Z,21.43
2022-11-12T05:45:05.200Z,20.60
2022-11-12T05:47:31.785Z,21.80
2022-11-12T05:49:58.353Z,19.77
2022-11-12T05:52:24.933Z,20.03
2022-11-12T05:54:51.609Z,20.30
2022-11-12T05:57:18.275Z,21.93
2022-11-12T05:59:44.864Z,20.23
2022-11-12T06:02:11.451Z,19.27
2022-11-12T06:04:38.013Z,21.50
2022-11-12T06:07:04.710Z,20.30
2022-11-12T06:09:31.435Z,20.93
2022-11-12T06:11:58.142Z,21.60
2022-11-12T06:14:24.710Z,20.63
2022-11-12T06:16:51.295Z,19.93
2022-11-12T06:19:17.877Z,21.30
2022-11-12T06:21:44.446Z,21.70
2022-11-12T06:24:11.330Z,23.67
2022-11-12T06:26:38.262Z,22.33
2022-11-12T06:29:04.856Z,24.13
2022-11-12T06:31:31.444Z,24.60
2022-11-12T06:33:58.146Z,36.07
2022-11-12T06:36:24.832Z,32.13
2022-11-12T06:38:51.453Z,34.10
2022-11-12T06:41:18.153Z,32.67
2022-11-12T06:43:44.775Z,47.03
2022-11-12T06:46:14.223Z,37.27
2022-11-12T06:48:41.290Z,29.23
2022-11-12T06:51:19.409Z,28.40
2022-11-12T06:53:46.605Z,27.63
2022-11-12T06:56:14.154Z,27.93
2022-11-12T06:58:41.368Z,26.47
2022-11-12T07:01:13.981Z,26.50
2022-11-12T07:03:42.436Z,25.17
2022-11-12T07:06:11.417Z,26.97
2022-11-12T07:08:38.492Z,25.97
2022-11-12T07:11:06.060Z,25.60
2022-11-12T07:13:34.183Z,24.53
2022-11-12T07:16:01.698Z,26.00
2022-11-12T07:18:29.529Z,27.43
2022-11-12T07:21:01.132Z,28.13
2022-11-12T07:23:29.614Z,27.03
2022-11-12T07:25:59.582Z,26.47
2022-11-12T07:28:27.123Z,27.50
2022-11-12T07:30:57.879Z,28.03
2022-11-12T07:33:25.082Z,27.40
2022-11-12T07:35:58.915Z,29.73
2022-11-12T07:38:26.368Z,32.27
2022-11-12T07:41:12.269Z,32.93
2022-11-12T07:43:40.398Z,32.63
2022-11-12T07:46:11.232Z,31.60
2022-11-12T07:48:38.466Z,37.63
2022-11-12T07:51:13.718Z,54.70
2022-11-12T07:53:41.228Z,57.60
2022-11-12T07:56:10.266Z,50.10
2022-11-12T07:58:36.928Z,42.13
2022-11-12T08:01:31.683Z,40.33
2022-11-12T08:03:59.841Z,33.77
2022-11-12T08:06:27.173Z,44.27
2022-11-12T08:08:55.083Z,44.37
2022-11-12T08:11:22.317Z,38.90
2022-11-12T08:13:49.348Z,34.90
2022-11-12T08:16:16.339Z,38.67
2022-11-12T08:18:44.322Z,38.00
2022-11-12T08:21:13.411Z,35.97
2022-11-12T08:23:40.619Z,36.73
2022-11-12T08:26:10.595Z,43.20
2022-11-12T08:28:37.523Z,47.63
2022-11-12T08:31:19.319Z,44.37
2022-11-12T08:33:46.007Z,41.77
2022-11-12T08:36:14.476Z,39.07
2022-11-12T08:38:41.450Z,38.07
2022-11-12T08:41:11.095Z,38.20
2022-11-12T08:43:39.599Z,39.53
2022-11-12T08:46:08.476Z,41.87
2022-11-12T08:48:35.844Z,44.08
2022-11-12T08:51:04.580Z,57.33
2022-11-12T08:53:31.988Z,76.83
2022-11-12T08:55:58.622Z,99.70
2022-11-12T08:58:26.596Z,59.97
2022-11-12T09:00:54.146Z,47.50
2022-11-12T09:03:22.889Z,46.53
2022-11-12T09:05:49.768Z,40.80
2022-11-12T09:08:19.294Z,38.50
2022-11-12T09:10:46.644Z,38.22
2022-11-12T09:13:14.811Z,38.55
2022-11-12T09:15:41.772Z,38.15
2022-11-12T09:18:14.032Z,36.63
2022-11-12T09:20:41.668Z,48.35
2022-11-12T09:23:11.245Z,40.28
2022-11-12T09:25:38.870Z,41.08
2022-11-12T09:28:20.667Z,48.05
2022-11-12T09:30:53.245Z,43.22
2022-11-12T09:33:27.328Z,40.28
2022-11-12T09:35:54.788Z,35.88
2022-11-12T09:38:22.476Z,27.88
2022-11-12T09:41:16.784Z,20.10
2022-11-12T09:43:50.412Z,14.48
2022-11-12T09:46:33.581Z,11.02
2022-11-12T09:49:06.892Z,5.72
2022-11-12T09:51:42.530Z,5.60
2022-11-12T09:54:21.178Z,5.65
2022-11-12T09:56:49.413Z,6.18
2022-11-12T09:59:16.545Z,7.35
2022-11-12T10:02:04.890Z,6.35
2022-11-12T10:04:42.928Z,5.82
2022-11-12T10:07:17.768Z,6.68
2022-11-12T10:10:09.419Z,6.82
2022-11-12T10:13:18.165Z,8.07
2022-11-12T10:16:23.061Z,8.57
2022-11-12T10:19:09.506Z,8.95
2022-11-12T10:21:55.225Z,9.40
2022-11-12T10:24:24.133Z,9.93
2022-11-12T10:26:52.223Z,9.77
2022-11-12T10:29:40.557Z,8.38
2022-11-12T10:32:14.818Z,7.60
2022-11-12T10:34:41.769Z,7.30
2022-11-12T10:37:27.668Z,7.40
2022-11-12T10:39:54.771Z,6.70
2022-11-12T10:42:23.290Z,6.15
2022-11-12T10:44:51.804Z,6.93
2022-11-12T10:47:21.208Z,7.30
2022-11-12T10:50:10.247Z,6.93
2022-11-12T10:52:42.389Z,7.47
2022-11-12T10:55:23.196Z,8.13
2022-11-12T10:58:10.700Z,7.95
2022-11-12T11:01:03.325Z,7.95
2022-11-12T11:03:34.565Z,7.85
2022-11-12T11:06:24.500Z,8.43
2022-11-12T11:08:53.229Z,8.38
2022-11-12T11:11:21.526Z,8.43
2022-11-12T11:13:55.419Z,9.32
2022-11-12T11:16:26.281Z,7.60
2022-11-12T11:18:59.340Z,7.80
2022-11-12T11:21:42.425Z,7.28
2022-11-12T11:24:35.632Z,8.13
2022-11-12T11:27:38.899Z,7.85
2022-11-12T11:30:09.831Z,7.82
2022-11-12T11:33:03.052Z,8.00
2022-11-12T11:35:46.807Z,8.32
2022-11-12T11:38:32.961Z,8.10
2022-11-12T11:41:13.578Z,8.48
2022-11-12T11:43:46.418Z,8.90
2022-11-12T11:46:22.624Z,8.02
2022-11-12T11:49:13.172Z,8.75
2022-11-12T11:51:57.882Z,8.40
2022-11-12T11:54:39.986Z,8.32
2022-11-12T11:57:22.587Z,7.82
2022-11-12T12:00:14.713Z,6.65
2022-11-12T12:02:47.064Z,7.63
2022-11-12T12:05:44.119Z,7.05
2022-11-12T12:08:42.353Z,7.13
2022-11-12T12:11:31.216Z,7.82
2022-11-12T12:14:11.284Z,6.93
2022-11-12T12:16:59.042Z,6.60
2022-11-12T12:19:37.457Z,6.72
2022-11-12T12:22:09.167Z,6.78
2022-11-12T12:24:58.008Z,7.07
2022-11-12T12:27:30.865Z,6.72
2022-11-12T12:30:08.055Z,6.53
2022-11-12T12:33:05.928Z,6.82
2022-11-12T12:35:49.156Z,6.95
2022-11-12T12:38:27.000Z,6.75
2022-11-12T12:41:09.579Z,6.57
2022-11-12T12:43:58.486Z,6.85
2022-11-12T12:46:30.446Z,6.60
2022-11-12T12:48:59.434Z,7.22
2022-11-12T12:51:29.996Z,6.70
2022-11-12T12:53:56.868Z,6.68
2022-11-12T12:56:23.499Z,6.60
2022-11-12T12:58:50.930Z,6.63
2022-11-12T13:01:23.404Z,7.05
2022-11-12T13:03:56.256Z,6.85
2022-11-12T13:06:22.924Z,6.50
2022-11-12T13:08:58.402Z,6.88
2022-11-12T13:12:03.474Z,6.75
2022-11-12T13:14:36.132Z,7.05
2022-11-12T13:17:07.255Z,6.40
2022-11-12T13:19:56.356Z,6.63
2022-11-12T13:22:24.061Z,7.38
2022-11-12T13:25:25.472Z,6.90
2022-11-12T13:27:52.007Z,6.30
2022-11-12T13:30:18.570Z,6.18
2022-11-12T13:32:51.000Z,5.78
2022-11-12T13:35:23.532Z,5.90
2022-11-12T13:37:52.174Z,6.15
2022-11-12T13:40:36.864Z,6.22
2022-11-12T13:43:10.973Z,6.20
2022-11-12T13:46:06.625Z,6.30
2022-11-12T13:48:39.100Z,6.05
2022-11-12T13:51:23.992Z,6.57
2022-11-12T13:53:50.773Z,5.90
2022-11-12T13:56:35.780Z,5.88
2022-11-12T13:59:17.846Z,6.40
2022-11-12T14:01:45.496Z,5.68
2022-11-12T14:04:17.141Z,6.00
2022-11-12T14:06:49.789Z,6.40
2022-11-12T14:09:38.024Z,5.95
2022-11-12T14:12:18.301Z,7.93
2022-11-12T14:14:50.453Z,7.63
2022-11-12T14:17:54.969Z,7.70
2022-11-12T14:20:28.928Z,6.72
2022-11-12T14:22:56.030Z,6.35
2022-11-12T14:25:27.577Z,5.55
2022-11-12T14:27:55.556Z,5.95
2022-11-12T14:30:29.499Z,6.00
2022-11-12T14:33:07.504Z,6.35
2022-11-12T14:35:39.224Z,5.68
2022-11-12T14:38:14.627Z,6.30
2022-11-12T14:40:53.346Z,6.10
2022-11-12T14:43:38.746Z,6.60
2022-11-12T14:46:07.579Z,6.13
2022-11-12T14:49:00.235Z,5.90
2022-11-12T14:51:30.715Z,6.05
2022-11-12T14:54:06.512Z,6.63
2022-11-12T14:56:48.617Z,6.18
2022-11-12T14:59:17.833Z,7.18
2022-11-12T15:02:28.652Z,7.43
2022-11-12T15:04:59.145Z,12.25
2022-11-12T15:07:51.236Z,12.10
2022-11-12T15:10:38.097Z,10.30
2022-11-12T15:13:15.665Z,9.80
2022-11-12T15:16:21.308Z,9.98
2022-11-12T15:19:18.298Z,10.00
2022-11-12T15:22:01.218Z,11.88
2022-11-12T15:24:36.073Z,15.00
2022-11-12T15:27:37.072Z,13.10
2022-11-12T15:30:24.944Z,12.82
2022-11-12T15:33:13.574Z,12.77
2022-11-12T15:35:47.262Z,12.40
2022-11-12T15:38:26.552Z,12.45
2022-11-12T15:40:57.769Z,11.77
2022-11-12T15:43:30.169Z,11.25
2022-11-12T15:45:57.252Z,11.45
2022-11-12T15:48:24.135Z,10.85
2022-11-12T15:50:50.847Z,11.23
2022-11-12T15:53:17.646Z,11.77
2022-11-12T15:55:45.186Z,10.38
2022-11-12T15:58:20.256Z,10.63
2022-11-12T16:00:47.039Z,11.88
2022-11-12T16:03:21.809Z,13.23
2022-11-12T16:05:48.697Z,13.02
2022-11-12T16:08:15.424Z,12.63
2022-11-12T16:10:44.618Z,12.70
2022-11-12T16:13:30.136Z,13.30
2022-11-12T16:15:57.271Z,11.77
2022-11-12T16:18:23.992Z,12.98
2022-11-12T16:20:50.803Z,14.50
2022-11-12T16:23:17.546Z,13.98
2022-11-12T16:25:45.341Z,21.77
2022-11-12T16:28:15.565Z,21.33
2022-11-12T16:30:46.723Z,22.33
2022-11-12T16:33:13.871Z,20.45
2022-11-12T16:35:40.915Z,18.33
2022-11-12T16:38:15.279Z,17.40
2022-11-12T16:40:43.312Z,15.68
2022-11-12T16:43:10.194Z,15.52
2022-11-12T16:45:43.199Z,15.07
2022-11-12T16:48:21.694Z,15.55
2022-11-12T16:50:48.882Z,40.22
2022-11-12T16:53:15.502Z,28.67
2022-11-12T16:55:42.242Z,23.55
2022-11-12T16:58:13.802Z,24.85
2022-11-12T17:00:43.108Z,23.00
2022-11-12T17:03:12.837Z,16.50
2022-11-12T17:05:39.586Z,15.55
2022-11-12T17:08:06.209Z,17.08
2022-11-12T17:10:32.806Z,16.85
2022-11-12T17:12:59.484Z,16.55
2022-11-12T17:15:26.198Z,17.67
2022-11-12T17:17:56.062Z,17.02
2022-11-12T17:20:22.797Z,21.15
2022-11-12T17:22:49.401Z,22.70
2022-11-12T17:25:16.173Z,22.35
2022-11-12T17:27:42.720Z,23.42
2022-11-12T17:30:11.282Z,20.90
2022-11-12T17:32:37.878Z,24.10
2022-11-12T17:35:05.133Z,22.75
2022-11-12T17:37:31.752Z,23.10
2022-11-12T17:39:58.628Z,21.83
2022-11-12T17:42:25.301Z,20.63
2022-11-12T17:44:51.885Z,22.90
2022-11-12T17:47:18.523Z,19.90
2022-11-12T17:49:45.107Z,19.25
2022-11-12T17:52:11.789Z,18.23
2022-11-12T17:54:38.363Z,17.80
2022-11-12T17:57:04.960Z,18.17
2022-11-12T17:59:31.633Z,18.65
2022-11-12T18:01:58.308Z,19.63
2022-11-12T18:04:26.599Z,21.02
2022-11-12T18:06:56.550Z,22.33
2022-11-12T18:09:23.238Z,24.38
2022-11-12T18:11:56.913Z,25.42
2022-11-12T18:14:26.231Z,26.42
2022-11-12T18:16:53.275Z,27.00
2022-11-12T18:19:19.965Z,27.58
2022-11-12T18:21:46.537Z,27.73
2022-11-12T18:24:14.895Z,30.53
2022-11-12T18:26:42.078Z,29.88
2022-11-12T18:29:08.681Z,29.45
2022-11-12T18:31:35.260Z,27.80
2022-11-12T18:34:01.873Z,30.50
2022-11-12T18:36:29.010Z,26.20
2022-11-12T18:38:56.152Z,22.33
2022-11-12T18:41:30.057Z,23.50
2022-11-12T18:43:57.036Z,23.50
2022-11-12T18:46:23.894Z,23.27
2022-11-12T18:48:50.927Z,24.30
2022-11-12T18:51:19.104Z,25.92
2022-11-12T18:53:46.607Z,27.13
2022-11-12T18:56:18.824Z,29.17
2022-11-12T18:58:45.652Z,27.92
2022-11-12T19:01:20.690Z,29.30
2022-11-12T19:03:48.646Z,28.67
2022-11-12T19:06:16.643Z,29.55
2022-11-12T19:08:43.368Z,27.85
2022-11-12T19:11:12.047Z,29.83
2022-11-12T19:13:39.925Z,26.90
2022-11-12T19:16:11.519Z,28.93
2022-11-12T19:18:39.451Z,35.75
2022-11-12T19:21:09.717Z,36.78
2022-11-12T19:23:36.595Z,29.20
2022-11-12T19:26:04.967Z,26.70
2022-11-12T19:28:31.588Z,24.90
2022-11-12T19:31:02.435Z,25.83
2022-11-12T19:33:29.038Z,28.03
2022-11-12T19:35:55.698Z,28.67
2022-11-12T19:38:22.268Z,27.30
2022-11-12T19:40:49.123Z,25.13
2022-11-12T19:43:16.241Z,23.97
2022-11-12T19:45:42.927Z,24.10
2022-11-12T19:48:09.508Z,23.80
2022-11-12T19:50:37.104Z,23.47
2022-11-12T19:53:03.753Z,46.85
2022-11-12T19:55:35.726Z,34.53
2022-11-12T19:58:06.138Z,28.70
2022-11-12T20:00:32.820Z,29.23
2022-11-12T20:02:59.877Z,28.37
2022-11-12T20:05:27.017Z,27.53
2022-11-12T20:07:53.623Z,27.93
2022-11-12T20:10:20.213Z,24.90
2022-11-12T20:12:46.852Z,24.37
2022-11-12T20:15:13.480Z,25.07
2022-11-12T20:17:40.104Z,26.07
2022-11-12T20:20:09.273Z,24.60
2022-11-12T20:22:36.578Z,27.00
2022-11-12T20:25:04.492Z,25.77
2022-11-12T20:27:31.172Z,24.70
2022-11-12T20:29:57.793Z,24.87
2022-11-12T20:32:24.415Z,24.53
2022-11-12T20:34:51.072Z,23.73
2022-11-12T20:37:20.431Z,24.20
2022-11-12T20:39:47.043Z,23.87
2022-11-12T20:42:13.818Z,22.70
2022-11-12T20:44:41.238Z,22.83
2022-11-12T20:47:07.890Z,23.50
2022-11-12T20:49:34.595Z,22.87
2022-11-12T20:52:01.215Z,23.67
2022-11-12T20:54:27.791Z,23.20
2022-11-12T20:56:55.946Z,23.20
2022-11-12T20:59:23.275Z,23.10
2022-11-12T21:01:49.961Z,22.13
2022-11-12T21:04:16.830Z,23.43
2022-11-12T21:07:07.899Z,22.60
2022-11-12T21:09:34.538Z,22.47
2022-11-12T21:12:01.197Z,23.47
2022-11-12T21:14:27.778Z,23.67
2022-11-12T21:16:54.369Z,26.23
2022-11-12T21:19:20.966Z,24.33
2022-11-12T21:21:47.566Z,22.70
2022-11-12T21:24:14.231Z,21.63
2022-11-12T21:26:40.809Z,21.97
2022-11-12T21:29:07.427Z,21.60
2022-11-12T21:31:34.088Z,20.60
2022-11-12T21:34:04.234Z,21.37
2022-11-12T21:36:33.984Z,23.57
2022-11-12T21:39:00.916Z,24.40
2022-11-12T21:41:28.745Z,23.10
2022-11-12T21:43:55.569Z,22.00
2022-11-12T21:46:28.086Z,20.63
2022-11-12T21:48:56.040Z,22.30
2022-11-12T21:51:25.424Z,21.80
2022-11-12T21:54:00.271Z,21.10
2022-11-12T21:56:28.450Z,21.97
2022-11-12T21:59:00.605Z,22.00
2022-11-12T22:01:34.530Z,22.63
2022-11-12T22:04:08.430Z,22.10
2022-11-12T22:06:38.490Z,21.97
2022-11-12T22:09:05.614Z,20.13
2022-11-12T22:11:32.546Z,21.10
2022-11-12T22:13:59.387Z,21.63
2022-11-12T22:16:29.407Z,21.77
2022-11-12T22:19:00.136Z,21.27
2022-11-12T22:21:29.746Z,21.90
2022-11-12T22:23:57.608Z,20.70
2022-11-12T22:26:28.648Z,21.27
2022-11-12T22:28:57.444Z,20.10
2022-11-12T22:31:27.369Z,19.90
2022-11-12T22:33:55.054Z,19.83
2022-11-12T22:36:24.527Z,20.30
2022-11-12T22:38:53.317Z,20.40
2022-11-12T22:41:25.680Z,20.07
2022-11-12T22:43:57.547Z,18.93
2022-11-12T22:46:30.450Z,19.47
2022-11-12T22:48:57.896Z,18.77
2022-11-12T22:51:30.757Z,19.03
2022-11-12T22:54:00.399Z,19.17
2022-11-12T22:56:28.980Z,19.97
2022-11-12T22:59:01.861Z,19.77
2022-11-12T23:01:34.347Z,19.97
2022-11-12T23:04:04.271Z,19.77
2022-11-12T23:06:31.693Z,20.50
2022-11-12T23:08:59.977Z,21.50
2022-11-12T23:11:26.843Z,20.57
2022-11-12T23:13:54.694Z,20.47
2022-11-12T23:16:24.919Z,20.67
2022-11-12T23:18:52.810Z,21.42
2022-11-12T23:21:24.180Z,21.43
2022-11-12T23:23:50.876Z,21.80
2022-11-12T23:26:23.594Z,21.37
2022-11-12T23:28:51.085Z,19.97
2022-11-12T23:31:38.988Z,20.77
2022-11-12T23:34:05.641Z,19.40
2022-11-12T23:36:32.516Z,19.97
2022-11-12T23:39:00.008Z,19.93
2022-11-12T23:41:27.205Z,20.87
2022-11-12T23:43:55.479Z,21.63
2022-11-12T23:46:22.431Z,21.53
2022-11-12T23:48:49.729Z,22.05
2022-11-12T23:51:19.134Z,20.67
2022-11-12T23:53:47.043Z,21.37
2022-11-12T23:56:16.170Z,22.27
2022-11-12T23:58:42.802Z,21.20
